createdAt,value
2023-02-19T00:01:15.305Z,71.63
2023-02-19T00:11:22.476Z,71.90
2023-02-19T00:21:25.828Z,71.78
2023-02-19T00:31:35.737Z,71.53
2023-02-19T00:41:38.013Z,70.98
2023-02-19T00:51:40.194Z,71.41
2023-02-19T01:01:44.640Z,70.81
2023-02-19T01:11:47.090Z,70.53
2023-02-19T01:21:49.342Z,69.13
2023-02-19T01:31:51.646Z,69.03
2023-02-19T01:41:53.841Z,69.16
2023-02-19T01:52:00.752Z,69.54
2023-02-19T02:02:02.984Z,68.35
2023-02-19T02:12:05.565Z,69.92
2023-02-19T02:22:18.759Z,70.00
2023-02-19T02:32:26.987Z,71.67
2023-02-19T02:42:29.334Z,73.80
2023-02-19T02:52:54.393Z,75.09
2023-02-19T03:02:56.978Z,74.74
2023-02-19T03:13:18.867Z,73.30
2023-02-19T03:23:43.443Z,73.38
2023-02-19T03:33:50.489Z,74.30
2023-02-19T03:43:56.403Z,76.09
2023-02-19T03:54:03.994Z,76.88
2023-02-19T04:04:18.438Z,77.69
2023-02-19T04:14:26.548Z,77.56
2023-02-19T04:24:34.919Z,76.85
2023-02-19T06:52:23.364Z,92.00
2023-02-19T07:02:26.432Z,88.00
2023-02-19T07:12:28.810Z,86.00
2023-02-19T07:22:30.979Z,84.13
2023-02-19T07:32:33.191Z,83.94
2023-02-19T07:42:35.404Z,82.95
2023-02-19T07:52:37.601Z,83.32
2023-02-19T08:02:58.263Z,83.16
2023-02-19T08:13:19.873Z,84.22
2023-02-19T08:23:22.628Z,83.09
2023-02-19T08:33:24.838Z,82.54
2023-02-19T08:43:27.096Z,83.33
2023-02-19T08:53:31.068Z,82.34
2023-02-19T09:03:33.312Z,82.58
2023-02-19T09:13:35.604Z,81.63
2023-02-19T09:23:37.980Z,80.59
2023-02-19T09:33:46.977Z,82.28
2023-02-19T09:43:49.215Z,81.41
2023-02-19T09:53:53.970Z,81.13
2023-02-19T10:03:56.236Z,82.65
2023-02-19T10:14:09.543Z,82.80
2023-02-19T10:24:20.688Z,81.98
2023-02-19T10:34:23.359Z,81.99
2023-02-19T10:44:32.327Z,82.39
2023-02-19T10:54:36.224Z,79.93
2023-02-19T11:04:38.540Z,80.13
2023-02-19T11:14:45.140Z,76.66
2023-02-19T11:24:55.447Z,76.98
2023-02-19T11:35:26.637Z,77.50
2023-02-19T11:45:41.414Z,75.21
2023-02-19T11:56:02.785Z,75.92
2023-02-19T12:06:28.711Z,76.58
2023-02-19T12:16:41.620Z,75.41
2023-02-19T12:27:04.445Z,74.90
2023-02-19T12:37:35.898Z,75.22
2023-02-19T12:47:43.522Z,75.66
2023-02-19T12:57:47.128Z,76.63
2023-02-19T13:08:02.170Z,75.05
2023-02-19T13:18:13.771Z,74.17
2023-02-19T13:28:51.578Z,73.23
2023-02-19T13:38:57.332Z,74.00
2023-02-19T13:49:24.568Z,73.39
2023-02-19T13:59:40.567Z,71.87
2023-02-19T14:09:45.639Z,71.20
2023-02-19T14:20:15.481Z,68.07
2023-02-19T14:30:18.301Z,69.02
2023-02-19T14:40:33.204Z,69.49
2023-02-19T14:50:37.066Z,69.10
2023-02-19T15:00:41.666Z,69.75
2023-02-19T15:10:44.700Z,70.67
2023-02-19T15:20:47.670Z,72.93
2023-02-19T15:30:58.713Z,72.42
2023-02-19T15:41:01.370Z,72.37
2023-02-19T15:51:13.371Z,73.16
2023-02-19T16:01:29.013Z,72.67
2023-02-19T16:11:49.925Z,72.96
2023-02-19T16:21:53.655Z,73.20
2023-02-19T16:32:01.985Z,73.18
2023-02-19T16:42:22.350Z,73.59
2023-02-19T16:52:24.699Z,73.05
2023-02-19T17:02:26.964Z,72.62
2023-02-19T17:12:29.179Z,70.35
2023-02-19T17:22:31.346Z,70.79
2023-02-19T17:32:33.613Z,71.57
2023-02-19T17:42:35.855Z,71.03
2023-02-19T17:52:38.018Z,70.09
2023-02-19T18:02:40.203Z,70.98
2023-02-19T18:12:42.642Z,70.30
2023-02-19T18:22:44.823Z,70.50
2023-02-19T18:32:50.718Z,69.86
2023-02-19T18:42:53.243Z,69.79
2023-02-19T18:52:55.602Z,70.26
2023-02-19T19:02:59.600Z,70.96
2023-02-19T19:13:01.848Z,69.63
2023-02-19T19:23:05.226Z,71.60
2023-02-19T19:33:07.477Z,72.12
2023-02-19T19:43:09.907Z,72.30
2023-02-19T19:53:12.377Z,72.27
2023-02-19T20:03:14.601Z,72.62
2023-02-19T20:13:18.401Z,73.33
2023-02-19T20:23:20.638Z,72.52
2023-02-19T20:33:22.941Z,72.30
2023-02-19T20:43:25.587Z,72.46
2023-02-19T20:53:29.784Z,73.43
2023-02-19T21:03:31.993Z,73.82
2023-02-19T21:13:35.293Z,75.14
2023-02-19T21:23:37.530Z,74.66
2023-02-19T21:40:12.337Z,75.98
2023-02-19T21:50:14.554Z,75.59
2023-02-19T22:00:17.032Z,76.36
2023-02-19T22:10:19.832Z,75.50
2023-02-19T22:20:22.087Z,74.61
2023-02-19T22:30:24.303Z,74.52
2023-02-19T22:40:26.664Z,73.47
2023-02-19T22:50:28.828Z,73.69
2023-02-19T23:00:31.066Z,74.41
2023-02-19T23:10:33.394Z,74.58
2023-02-19T23:20:35.679Z,75.24
2023-02-19T23:30:37.998Z,75.15
2023-02-19T23:40:40.317Z,75.69
2023-02-19T23:50:42.744Z,75.01
